createdAt,value
2023-03-26T00:00:16.232Z,89.26
2023-03-26T00:04:17.868Z,88.79
2023-03-26T00:08:19.302Z,87.54
2023-03-26T00:12:22.084Z,86.28
2023-03-26T00:16:24.920Z,86.56
2023-03-26T00:20:26.973Z,84.17
2023-03-26T00:24:28.405Z,82.78
2023-03-26T00:28:31.173Z,81.92
2023-03-26T00:32:32.793Z,81.19
2023-03-26T00:36:34.254Z,81.85
2023-03-26T00:40:35.709Z,81.74
2023-03-26T00:44:38.492Z,81.11
2023-03-26T00:48:45.622Z,80.16
2023-03-26T00:52:47.540Z,79.43
2023-03-26T00:56:49.211Z,80.84
2023-03-26T01:00:55.514Z,79.87
2023-03-26T01:04:58.715Z,80.48
2023-03-26T01:09:04.681Z,80.42
2023-03-26T01:13:06.247Z,81.73
2023-03-26T01:17:09.089Z,85.36
2023-03-26T01:21:10.713Z,90.36
2023-03-26T01:25:13.550Z,95.23
2023-03-26T01:29:20.923Z,97.46
2023-03-26T01:33:28.251Z,98.62
2023-03-26T01:37:39.517Z,97.76
2023-03-26T01:41:45.463Z,97.29
2023-03-26T01:45:49.542Z,94.66
2023-03-26T01:49:50.984Z,95.73
2023-03-26T01:53:54.396Z,95.21
2023-03-26T01:58:07.803Z,94.16
2023-03-26T02:02:12.945Z,93.08
2023-03-26T02:06:19.664Z,91.72
2023-03-26T02:10:26.953Z,92.32
2023-03-26T02:14:30.688Z,92.35
2023-03-26T02:18:32.123Z,92.32
2023-03-26T02:22:33.593Z,90.73
2023-03-26T02:26:36.159Z,90.94
2023-03-26T02:30:39.045Z,91.01
2023-03-26T02:34:42.375Z,90.51
2023-03-26T02:38:43.821Z,90.15
2023-03-26T02:42:45.273Z,89.64
2023-03-26T02:46:48.116Z,90.35
2023-03-26T02:50:49.611Z,90.04
2023-03-26T02:54:51.053Z,90.47
2023-03-26T02:58:52.517Z,92.33
2023-03-26T03:02:56.926Z,94.12
2023-03-26T03:06:58.436Z,95.31
2023-03-26T03:11:01.737Z,95.19
2023-03-26T03:15:03.781Z,93.89
2023-03-26T03:19:07.053Z,93.89
2023-03-26T03:23:08.631Z,94.61
2023-03-26T03:27:10.171Z,94.31
2023-03-26T03:31:11.762Z,92.64
2023-03-26T03:35:14.650Z,93.63
2023-03-26T03:39:16.103Z,93.12
2023-03-26T03:43:17.563Z,93.13
2023-03-26T03:47:19.109Z,92.79
2023-03-26T03:51:21.929Z,92.83
2023-03-26T03:55:23.374Z,92.41
2023-03-26T03:59:24.907Z,92.90
2023-03-26T04:03:33.481Z,91.71
2023-03-26T04:07:37.529Z,91.39
2023-03-26T04:11:38.989Z,91.79
2023-03-26T04:15:41.340Z,92.38
2023-03-26T04:19:42.825Z,92.59
2023-03-26T04:23:45.584Z,92.21
2023-03-26T04:27:48.294Z,91.93
2023-03-26T04:31:51.085Z,91.35
2023-03-26T04:35:52.734Z,91.59
2023-03-26T04:39:55.716Z,91.29
2023-03-26T04:43:57.144Z,90.27
2023-03-26T04:47:58.762Z,89.83
2023-03-26T04:52:00.290Z,89.07
2023-03-26T04:56:09.245Z,89.28
2023-03-26T05:00:15.378Z,89.46
2023-03-26T05:04:16.934Z,89.29
2023-03-26T05:08:18.424Z,89.03
2023-03-26T05:12:21.198Z,88.30
2023-03-26T05:16:22.940Z,87.49
2023-03-26T05:20:26.758Z,87.45
2023-03-26T05:24:28.197Z,86.79
2023-03-26T05:28:30.996Z,86.23
2023-03-26T05:32:32.825Z,86.57
2023-03-26T05:36:34.457Z,86.56
2023-03-26T05:40:35.942Z,86.64
2023-03-26T05:44:38.709Z,85.84
2023-03-26T05:48:40.181Z,86.46
2023-03-26T05:52:41.652Z,86.82
2023-03-26T05:56:43.179Z,86.26
2023-03-26T06:00:46.004Z,85.76
2023-03-26T06:04:47.534Z,85.89
2023-03-26T06:09:02.362Z,85.12
2023-03-26T06:13:04.519Z,84.67
2023-03-26T06:17:09.588Z,84.64
2023-03-26T06:21:11.086Z,84.71
2023-03-26T06:25:12.545Z,84.28
2023-03-26T06:29:14.474Z,85.45
2023-03-26T06:33:17.704Z,84.69
2023-03-26T06:37:19.168Z,83.98
2023-03-26T06:41:20.769Z,83.06
2023-03-26T06:45:22.365Z,83.12
2023-03-26T06:49:25.228Z,81.37
2023-03-26T06:53:26.839Z,81.36
2023-03-26T06:57:28.398Z,81.65
2023-03-26T07:01:29.991Z,81.63
2023-03-26T07:05:32.926Z,81.46
2023-03-26T07:09:34.441Z,80.69
2023-03-26T07:13:35.984Z,80.29
2023-03-26T07:17:37.799Z,78.79
2023-03-26T07:21:41.261Z,79.43
2023-03-26T07:25:43.170Z,78.90
2023-03-26T07:29:48.899Z,79.10
2023-03-26T07:33:58.556Z,78.88
2023-03-26T07:38:19.102Z,77.42
2023-03-26T07:42:34.383Z,77.68
2023-03-26T07:46:36.318Z,76.21
2023-03-26T07:50:38.538Z,75.44
2023-03-26T07:54:41.918Z,76.66
2023-03-26T07:59:03.860Z,75.57
2023-03-26T08:03:16.797Z,75.29
2023-03-26T08:07:26.724Z,77.14
2023-03-26T08:11:40.291Z,75.04
2023-03-26T08:15:46.467Z,77.26
2023-03-26T08:19:54.942Z,77.18
2023-03-26T08:24:04.968Z,75.81
2023-03-26T08:28:22.027Z,76.55
2023-03-26T08:32:23.901Z,75.89
2023-03-26T08:36:25.398Z,76.45
2023-03-26T08:40:55.280Z,74.46
2023-03-26T08:45:27.152Z,74.65
2023-03-26T08:49:56.404Z,75.14
2023-03-26T08:54:36.404Z,73.87
2023-03-26T08:59:11.021Z,73.82
2023-03-26T09:04:00.144Z,75.51
2023-03-26T09:08:30.032Z,75.70
2023-03-26T09:12:59.311Z,73.00
2023-03-26T09:17:19.680Z,74.00
2023-03-26T09:21:53.992Z,73.20
2023-03-26T09:26:29.592Z,72.58
2023-03-26T09:30:57.947Z,73.10
2023-03-26T09:35:45.151Z,72.09
2023-03-26T09:40:01.427Z,71.92
2023-03-26T09:44:32.227Z,72.15
2023-03-26T09:48:56.109Z,71.59
2023-03-26T09:53:07.292Z,72.17
2023-03-26T09:57:16.820Z,69.03
2023-03-26T10:01:30.355Z,67.91
2023-03-26T10:06:10.440Z,67.49
2023-03-26T10:10:20.991Z,64.85
2023-03-26T10:14:29.457Z,64.02
2023-03-26T10:18:41.769Z,64.68
2023-03-26T10:22:56.441Z,63.05
2023-03-26T10:27:10.994Z,63.48
2023-03-26T10:31:32.852Z,63.71
2023-03-26T10:35:47.075Z,65.64
2023-03-26T10:40:15.280Z,63.37
2023-03-26T10:44:53.495Z,59.52
2023-03-26T10:49:33.455Z,63.38
2023-03-26T10:53:43.213Z,61.21
2023-03-26T10:57:48.997Z,60.94
2023-03-26T11:02:00.307Z,57.64
2023-03-26T11:06:16.544Z,53.49
2023-03-26T11:10:28.055Z,54.43
2023-03-26T11:14:40.995Z,50.83
2023-03-26T11:18:50.636Z,53.52
2023-03-26T11:23:07.745Z,54.23
2023-03-26T11:27:18.974Z,52.38
2023-03-26T11:31:32.925Z,52.63
2023-03-26T11:35:41.060Z,53.52
2023-03-26T11:39:49.608Z,52.79
2023-03-26T11:43:56.330Z,53.90
2023-03-26T11:48:04.175Z,54.61
2023-03-26T11:52:05.747Z,53.32
2023-03-26T11:56:13.692Z,52.44
2023-03-26T12:00:19.076Z,54.07
2023-03-26T12:04:28.680Z,53.02
2023-03-26T12:08:34.554Z,52.54
2023-03-26T12:12:39.144Z,53.90
2023-03-26T12:16:57.308Z,51.85
2023-03-26T12:21:04.437Z,51.22
2023-03-26T12:25:18.047Z,53.00
2023-03-26T12:29:19.454Z,52.66
2023-03-26T12:33:26.587Z,52.27
2023-03-26T12:37:35.179Z,53.80
2023-03-26T12:44:42.354Z,52.80
2023-03-26T12:46:03.858Z,53.21
2023-03-26T12:50:34.347Z,53.48
2023-03-26T12:54:46.794Z,54.97
2023-03-26T12:59:06.816Z,54.67
2023-03-26T13:03:22.609Z,54.59
2023-03-26T13:07:35.960Z,55.53
2023-03-26T13:11:47.656Z,56.28
2023-03-26T13:15:52.776Z,56.43
2023-03-26T13:20:03.919Z,59.14
2023-03-26T13:24:17.589Z,58.03
2023-03-26T13:28:33.538Z,56.93
2023-03-26T13:32:48.550Z,56.48
2023-03-26T13:37:02.976Z,58.39
2023-03-26T13:41:14.466Z,56.29
2023-03-26T13:45:33.766Z,55.08
2023-03-26T13:49:40.866Z,55.76
2023-03-26T13:53:47.487Z,56.96
2023-03-26T13:57:58.275Z,56.67
2023-03-26T14:02:05.085Z,56.26
2023-03-26T14:06:12.836Z,58.14
2023-03-26T14:10:19.118Z,56.82
2023-03-26T14:14:28.673Z,58.04
2023-03-26T14:18:37.393Z,58.29
2023-03-26T14:22:51.905Z,58.04
2023-03-26T14:27:17.667Z,60.39
2023-03-26T14:31:29.086Z,62.95
2023-03-26T14:35:36.734Z,68.09
2023-03-26T14:40:08.096Z,76.61
2023-03-26T14:44:47.845Z,84.20
2023-03-26T14:49:06.229Z,87.08
2023-03-26T14:53:15.861Z,90.05
2023-03-26T14:57:52.066Z,89.75
2023-03-26T15:02:34.026Z,89.54
2023-03-26T15:07:15.676Z,87.19
2023-03-26T15:11:26.842Z,87.04
2023-03-26T15:15:53.955Z,90.24
2023-03-26T15:20:25.014Z,89.52
2023-03-26T15:24:56.584Z,86.86
2023-03-26T15:29:27.820Z,88.11
2023-03-26T15:33:57.654Z,85.96
2023-03-26T15:38:32.605Z,86.22
2023-03-26T15:42:45.163Z,87.79
2023-03-26T15:46:57.830Z,87.71
2023-03-26T15:51:10.422Z,88.87
2023-03-26T15:55:25.652Z,89.37
2023-03-26T15:59:40.495Z,90.05
2023-03-26T16:03:51.685Z,91.17
2023-03-26T16:08:03.725Z,91.78
2023-03-26T16:12:28.490Z,91.94
2023-03-26T16:16:52.476Z,94.37
2023-03-26T16:21:02.786Z,94.11
2023-03-26T16:25:27.988Z,94.51
2023-03-26T16:29:32.117Z,94.65
2023-03-26T16:33:37.108Z,97.00
2023-03-26T16:37:42.153Z,98.33
2023-03-26T16:42:18.698Z,97.13
2023-03-26T16:46:31.190Z,98.16
2023-03-26T16:50:43.871Z,99.02
2023-03-26T16:54:53.840Z,100.00
2023-03-26T16:58:59.616Z,99.93
2023-03-26T17:03:11.454Z,100.00
2023-03-26T17:07:17.686Z,99.82
2023-03-26T17:11:25.828Z,99.45
2023-03-26T17:15:34.237Z,100.00
2023-03-26T17:19:41.667Z,100.00
2023-03-26T17:23:58.750Z,100.00
2023-03-26T17:28:17.529Z,100.00
2023-03-26T17:32:19.223Z,100.00
2023-03-26T17:36:29.669Z,100.00
2023-03-26T17:40:45.316Z,100.00
2023-03-26T17:44:50.577Z,100.00
2023-03-26T17:48:59.367Z,100.00
2023-03-26T17:53:04.412Z,100.00
2023-03-26T17:57:12.408Z,100.00
2023-03-26T18:01:22.654Z,100.00
2023-03-26T18:05:27.906Z,100.00
2023-03-26T18:09:49.810Z,100.00
2023-03-26T18:14:14.673Z,100.00
2023-03-26T18:18:22.104Z,100.00
2023-03-26T18:22:26.585Z,100.00
2023-03-26T18:26:35.506Z,100.00
2023-03-26T18:30:48.547Z,100.00
2023-03-26T18:34:57.043Z,100.00
2023-03-26T18:38:59.249Z,100.00
2023-03-26T18:43:00.833Z,100.00
2023-03-26T18:47:05.686Z,100.00
2023-03-26T18:51:08.838Z,100.00
2023-03-26T18:55:12.736Z,100.00
2023-03-26T18:59:23.328Z,100.00
2023-03-26T19:03:25.678Z,100.00
2023-03-26T19:07:29.951Z,100.00
2023-03-26T19:11:32.064Z,100.00
2023-03-26T19:15:35.693Z,100.00
2023-03-26T19:19:37.744Z,100.00
2023-03-26T19:23:41.613Z,100.00
2023-03-26T19:27:43.191Z,100.00
2023-03-26T19:31:50.084Z,100.00
2023-03-26T19:35:59.962Z,100.00
2023-03-26T19:40:13.788Z,100.00
2023-03-26T19:51:18.597Z,100.00
2023-03-26T19:53:15.315Z,100.00
2023-03-26T19:57:20.405Z,100.00
2023-03-26T20:01:24.172Z,100.00
2023-03-26T20:05:29.097Z,100.00
2023-03-26T20:09:30.512Z,100.00
2023-03-26T20:13:33.270Z,100.00
2023-03-26T20:17:34.829Z,100.00
2023-03-26T20:21:36.445Z,100.00
2023-03-26T20:25:43.115Z,100.00
2023-03-26T20:29:45.845Z,100.00
2023-03-26T20:33:48.057Z,100.00
2023-03-26T20:37:49.564Z,100.00
2023-03-26T20:41:52.614Z,100.00
2023-03-26T20:45:55.595Z,100.00
2023-03-26T20:49:57.139Z,100.00
2023-03-26T20:53:58.585Z,100.00
2023-03-26T20:58:00.019Z,100.00
2023-03-26T21:02:02.832Z,100.00
2023-03-26T21:06:06.872Z,100.00
2023-03-26T21:10:11.727Z,100.00
2023-03-26T21:14:18.485Z,100.00
2023-03-26T21:18:21.963Z,100.00
2023-03-26T21:22:32.302Z,100.00
2023-03-26T21:26:42.051Z,100.00
2023-03-26T21:30:44.310Z,100.00
2023-03-26T21:34:55.412Z,100.00
2023-03-26T21:39:00.413Z,100.00
2023-03-26T21:43:02.386Z,100.00
2023-03-26T21:47:04.267Z,100.00
2023-03-26T21:51:10.318Z,100.00
2023-03-26T21:55:12.369Z,100.00
2023-03-26T21:59:22.942Z,100.00
2023-03-26T22:03:30.068Z,100.00
2023-03-26T22:07:42.828Z,100.00
2023-03-26T22:11:44.273Z,100.00
2023-03-26T22:15:45.830Z,100.00
2023-03-26T22:19:47.268Z,100.00
2023-03-26T22:23:50.584Z,100.00
2023-03-26T22:27:52.144Z,100.00
2023-03-26T22:31:53.596Z,100.00
2023-03-26T22:35:55.943Z,100.00
2023-03-26T22:39:58.823Z,100.00
2023-03-26T22:44:09.433Z,100.00
2023-03-26T22:48:20.459Z,100.00
2023-03-26T22:52:21.880Z,100.00
2023-03-26T22:56:24.652Z,100.00
2023-03-26T23:00:26.370Z,100.00
2023-03-26T23:04:31.236Z,100.00
2023-03-26T23:08:35.030Z,100.00
2023-03-26T23:12:38.156Z,100.00
2023-03-26T23:16:39.644Z,100.00
2023-03-26T23:20:41.115Z,100.00
2023-03-26T23:24:42.566Z,100.00
2023-03-26T23:28:45.601Z,100.00
2023-03-26T23:32:47.131Z,100.00
2023-03-26T23:36:48.711Z,100.00
2023-03-26T23:40:57.246Z,100.00
2023-03-26T23:45:00.507Z,100.00
2023-03-26T23:49:02.490Z,100.00
2023-03-26T23:53:04.647Z,100.00
2023-03-26T23:57:06.072Z,100.00
